sensor_id;sensor_type;location;lat;lon;timestamp;P1;durP1;ratioP1;P2;durP2;ratioP2
31262;SDS011;17892;52.080;9.006;2023-12-20T00:01:34;5.60;;;2.70;;
31262;SDS011;17892;52.080;9.006;2023-12-20T00:04:00;5.40;;;2.72;;
31262;SDS011;17892;52.080;9.006;2023-12-20T00:06:27;5.20;;;2.38;;
31262;SDS011;17892;52.080;9.006;2023-12-20T00:08:53;6.00;;;3.13;;
31262;SDS011;17892;52.080;9.006;2023-12-20T00:11:18;5.47;;;2.53;;
31262;SDS011;17892;52.080;9.006;2023-12-20T00:13:44;6.22;;;2.95;;
31262;SDS011;17892;52.080;9.006;2023-12-20T00:16:10;4.82;;;3.05;;
31262;SDS011;17892;52.080;9.006;2023-12-20T00:18:35;5.70;;;2.67;;
31262;SDS011;17892;52.080;9.006;2023-12-20T00:21:01;6.38;;;2.50;;
31262;SDS011;17892;52.080;9.006;2023-12-20T00:23:27;4.35;;;2.10;;
31262;SDS011;17892;52.080;9.006;2023-12-20T00:25:52;5.57;;;2.60;;
31262;SDS011;17892;52.080;9.006;2023-12-20T00:28:18;4.95;;;2.22;;
31262;SDS011;17892;52.080;9.006;2023-12-20T00:30:44;5.88;;;2.53;;
31262;SDS011;17892;52.080;9.006;2023-12-20T00:33:09;4.68;;;1.70;;
31262;SDS011;17892;52.080;9.006;2023-12-20T00:35:35;4.85;;;2.03;;
31262;SDS011;17892;52.080;9.006;2023-12-20T00:38:01;5.50;;;2.60;;
31262;SDS011;17892;52.080;9.006;2023-12-20T00:40:27;4.95;;;2.00;;
31262;SDS011;17892;52.080;9.006;2023-12-20T00:42:52;3.88;;;1.55;;
31262;SDS011;17892;52.080;9.006;2023-12-20T00:45:18;6.15;;;2.00;;
31262;SDS011;17892;52.080;9.006;2023-12-20T00:47:44;3.38;;;1.67;;
31262;SDS011;17892;52.080;9.006;2023-12-20T00:50:10;5.18;;;1.80;;
31262;SDS011;17892;52.080;9.006;2023-12-20T00:52:36;5.28;;;1.80;;
31262;SDS011;17892;52.080;9.006;2023-12-20T00:55:01;6.75;;;2.00;;
31262;SDS011;17892;52.080;9.006;2023-12-20T00:57:28;4.88;;;1.58;;
31262;SDS011;17892;52.080;9.006;2023-12-20T00:59:54;4.22;;;1.75;;
31262;SDS011;17892;52.080;9.006;2023-12-20T01:02:20;4.25;;;1.83;;
31262;SDS011;17892;52.080;9.006;2023-12-20T01:04:45;5.57;;;2.05;;
31262;SDS011;17892;52.080;9.006;2023-12-20T01:07:11;3.88;;;1.35;;
31262;SDS011;17892;52.080;9.006;2023-12-20T01:09:37;4.00;;;1.70;;
31262;SDS011;17892;52.080;9.006;2023-12-20T01:12:03;8.68;;;2.13;;
31262;SDS011;17892;52.080;9.006;2023-12-20T01:14:29;4.30;;;1.63;;
31262;SDS011;17892;52.080;9.006;2023-12-20T01:16:54;2.78;;;1.40;;
31262;SDS011;17892;52.080;9.006;2023-12-20T01:19:20;5.00;;;1.30;;
31262;SDS011;17892;52.080;9.006;2023-12-20T01:21:46;4.47;;;1.90;;
31262;SDS011;17892;52.080;9.006;2023-12-20T01:24:12;5.97;;;2.00;;
31262;SDS011;17892;52.080;9.006;2023-12-20T01:26:37;3.72;;;1.50;;
31262;SDS011;17892;52.080;9.006;2023-12-20T01:29:03;4.57;;;1.27;;
31262;SDS011;17892;52.080;9.006;2023-12-20T01:31:29;4.38;;;1.15;;
31262;SDS011;17892;52.080;9.006;2023-12-20T01:33:54;4.68;;;1.85;;
31262;SDS011;17892;52.080;9.006;2023-12-20T01:36:20;4.53;;;1.40;;
31262;SDS011;17892;52.080;9.006;2023-12-20T01:38:46;3.97;;;1.17;;
31262;SDS011;17892;52.080;9.006;2023-12-20T01:41:12;3.50;;;1.20;;
31262;SDS011;17892;52.080;9.006;2023-12-20T01:43:37;4.40;;;1.10;;
31262;SDS011;17892;52.080;9.006;2023-12-20T01:46:03;4.93;;;1.08;;
31262;SDS011;17892;52.080;9.006;2023-12-20T01:48:29;2.60;;;1.00;;
31262;SDS011;17892;52.080;9.006;2023-12-20T01:50:57;2.83;;;1.05;;
31262;SDS011;17892;52.080;9.006;2023-12-20T01:53:24;3.92;;;0.90;;
31262;SDS011;17892;52.080;9.006;2023-12-20T01:55:52;3.65;;;1.20;;
31262;SDS011;17892;52.080;9.006;2023-12-20T01:58:20;4.95;;;1.30;;
31262;SDS011;17892;52.080;9.006;2023-12-20T02:00:48;3.22;;;1.00;;
31262;SDS011;17892;52.080;9.006;2023-12-20T02:03:14;3.17;;;1.30;;
31262;SDS011;17892;52.080;9.006;2023-12-20T02:05:41;3.88;;;1.30;;
31262;SDS011;17892;52.080;9.006;2023-12-20T02:08:07;3.65;;;1.10;;
31262;SDS011;17892;52.080;9.006;2023-12-20T02:10:33;3.00;;;1.00;;
31262;SDS011;17892;52.080;9.006;2023-12-20T02:12:59;1.83;;;0.63;;
31262;SDS011;17892;52.080;9.006;2023-12-20T02:15:25;4.35;;;1.17;;
31262;SDS011;17892;52.080;9.006;2023-12-20T02:17:51;3.88;;;1.17;;
31262;SDS011;17892;52.080;9.006;2023-12-20T02:20:16;4.47;;;1.40;;
31262;SDS011;17892;52.080;9.006;2023-12-20T02:22:42;3.40;;;0.90;;
31262;SDS011;17892;52.080;9.006;2023-12-20T02:25:08;5.95;;;0.85;;
31262;SDS011;17892;52.080;9.006;2023-12-20T02:27:34;2.70;;;0.85;;
31262;SDS011;17892;52.080;9.006;2023-12-20T02:30:00;3.72;;;0.70;;
31262;SDS011;17892;52.080;9.006;2023-12-20T02:32:26;2.35;;;0.70;;
31262;SDS011;17892;52.080;9.006;2023-12-20T02:34:52;3.28;;;0.73;;
31262;SDS011;17892;52.080;9.006;2023-12-20T02:37:19;3.58;;;1.23;;
31262;SDS011;17892;52.080;9.006;2023-12-20T02:39:45;2.97;;;0.90;;
31262;SDS011;17892;52.080;9.006;2023-12-20T02:42:10;3.13;;;0.93;;
31262;SDS011;17892;52.080;9.006;2023-12-20T02:44:36;2.17;;;0.85;;
31262;SDS011;17892;52.080;9.006;2023-12-20T02:47:02;3.40;;;0.75;;
31262;SDS011;17892;52.080;9.006;2023-12-20T02:49:28;3.22;;;0.80;;
31262;SDS011;17892;52.080;9.006;2023-12-20T02:51:54;5.63;;;1.00;;
31262;SDS011;17892;52.080;9.006;2023-12-20T02:54:19;3.22;;;1.00;;
31262;SDS011;17892;52.080;9.006;2023-12-20T02:56:45;3.83;;;0.90;;
31262;SDS011;17892;52.080;9.006;2023-12-20T02:59:11;2.05;;;0.80;;
31262;SDS011;17892;52.080;9.006;2023-12-20T03:01:45;3.38;;;1.33;;
31262;SDS011;17892;52.080;9.006;2023-12-20T03:04:11;3.03;;;1.20;;
31262;SDS011;17892;52.080;9.006;2023-12-20T03:06:37;7.65;;;1.45;;
31262;SDS011;17892;52.080;9.006;2023-12-20T03:09:03;6.10;;;1.30;;
31262;SDS011;17892;52.080;9.006;2023-12-20T03:11:29;2.78;;;1.10;;
31262;SDS011;17892;52.080;9.006;2023-12-20T03:13:56;3.47;;;1.00;;
31262;SDS011;17892;52.080;9.006;2023-12-20T03:16:22;3.00;;;1.38;;
31262;SDS011;17892;52.080;9.006;2023-12-20T03:18:48;4.93;;;1.50;;
31262;SDS011;17892;52.080;9.006;2023-12-20T03:21:14;3.13;;;1.20;;
31262;SDS011;17892;52.080;9.006;2023-12-20T03:23:40;2.70;;;1.10;;
31262;SDS011;17892;52.080;9.006;2023-12-20T03:26:09;4.80;;;1.52;;
31262;SDS011;17892;52.080;9.006;2023-12-20T03:28:36;10.40;;;1.80;;
31262;SDS011;17892;52.080;9.006;2023-12-20T03:31:02;5.78;;;1.45;;
31262;SDS011;17892;52.080;9.006;2023-12-20T03:33:28;3.33;;;1.45;;
31262;SDS011;17892;52.080;9.006;2023-12-20T03:35:54;3.83;;;1.13;;
31262;SDS011;17892;52.080;9.006;2023-12-20T03:38:20;3.45;;;1.05;;
31262;SDS011;17892;52.080;9.006;2023-12-20T03:40:48;5.53;;;1.45;;
31262;SDS011;17892;52.080;9.006;2023-12-20T03:43:15;6.15;;;1.60;;
31262;SDS011;17892;52.080;9.006;2023-12-20T03:45:41;4.65;;;1.02;;
31262;SDS011;17892;52.080;9.006;2023-12-20T03:48:08;5.07;;;1.40;;
31262;SDS011;17892;52.080;9.006;2023-12-20T03:50:34;5.20;;;1.48;;
31262;SDS011;17892;52.080;9.006;2023-12-20T03:53:00;4.90;;;1.45;;
31262;SDS011;17892;52.080;9.006;2023-12-20T03:55:26;5.53;;;1.85;;
31262;SDS011;17892;52.080;9.006;2023-12-20T03:57:52;9.18;;;2.05;;
31262;SDS011;17892;52.080;9.006;2023-12-20T04:00:17;6.28;;;2.30;;
31262;SDS011;17892;52.080;9.006;2023-12-20T04:02:43;6.95;;;1.90;;
31262;SDS011;17892;52.080;9.006;2023-12-20T04:05:09;4.97;;;1.77;;
31262;SDS011;17892;52.080;9.006;2023-12-20T04:07:35;4.82;;;1.88;;
31262;SDS011;17892;52.080;9.006;2023-12-20T04:10:01;6.82;;;2.33;;
31262;SDS011;17892;52.080;9.006;2023-12-20T04:12:28;5.45;;;2.25;;
31262;SDS011;17892;52.080;9.006;2023-12-20T04:14:55;5.68;;;2.03;;
31262;SDS011;17892;52.080;9.006;2023-12-20T04:17:21;6.07;;;1.83;;
31262;SDS011;17892;52.080;9.006;2023-12-20T04:19:48;8.20;;;2.60;;
31262;SDS011;17892;52.080;9.006;2023-12-20T04:22:14;4.95;;;2.22;;
31262;SDS011;17892;52.080;9.006;2023-12-20T04:24:40;5.53;;;1.83;;
31262;SDS011;17892;52.080;9.006;2023-12-20T04:27:07;6.28;;;2.38;;
31262;SDS011;17892;52.080;9.006;2023-12-20T04:29:33;9.40;;;2.00;;
31262;SDS011;17892;52.080;9.006;2023-12-20T04:31:59;5.70;;;2.08;;
31262;SDS011;17892;52.080;9.006;2023-12-20T04:34:25;9.07;;;2.03;;
31262;SDS011;17892;52.080;9.006;2023-12-20T04:36:51;6.15;;;2.38;;
31262;SDS011;17892;52.080;9.006;2023-12-20T04:39:17;6.57;;;2.45;;
31262;SDS011;17892;52.080;9.006;2023-12-20T04:41:43;5.63;;;2.20;;
31262;SDS011;17892;52.080;9.006;2023-12-20T04:44:09;11.27;;;2.88;;
31262;SDS011;17892;52.080;9.006;2023-12-20T04:46:34;9.38;;;2.00;;
31262;SDS011;17892;52.080;9.006;2023-12-20T04:49:00;4.95;;;2.40;;
31262;SDS011;17892;52.080;9.006;2023-12-20T04:51:26;7.07;;;2.78;;
31262;SDS011;17892;52.080;9.006;2023-12-20T04:53:52;6.25;;;2.13;;
31262;SDS011;17892;52.080;9.006;2023-12-20T04:56:17;8.20;;;2.50;;
31262;SDS011;17892;52.080;9.006;2023-12-20T04:58:43;5.93;;;1.80;;
31262;SDS011;17892;52.080;9.006;2023-12-20T05:01:09;8.88;;;3.33;;
31262;SDS011;17892;52.080;9.006;2023-12-20T05:03:35;5.85;;;2.78;;
31262;SDS011;17892;52.080;9.006;2023-12-20T05:06:01;5.25;;;1.88;;
31262;SDS011;17892;52.080;9.006;2023-12-20T05:08:26;7.85;;;2.58;;
31262;SDS011;17892;52.080;9.006;2023-12-20T05:10:55;6.57;;;2.90;;
31262;SDS011;17892;52.080;9.006;2023-12-20T05:13:21;10.57;;;2.97;;
31262;SDS011;17892;52.080;9.006;2023-12-20T05:15:47;8.93;;;3.10;;
31262;SDS011;17892;52.080;9.006;2023-12-20T05:18:13;7.55;;;2.72;;
31262;SDS011;17892;52.080;9.006;2023-12-20T05:20:39;17.08;;;3.75;;
31262;SDS011;17892;52.080;9.006;2023-12-20T05:23:05;6.75;;;3.20;;
31262;SDS011;17892;52.080;9.006;2023-12-20T05:25:31;10.93;;;2.75;;
31262;SDS011;17892;52.080;9.006;2023-12-20T05:27:57;6.78;;;2.90;;
31262;SDS011;17892;52.080;9.006;2023-12-20T05:30:23;7.53;;;2.35;;
31262;SDS011;17892;52.080;9.006;2023-12-20T05:32:48;7.25;;;2.40;;
31262;SDS011;17892;52.080;9.006;2023-12-20T05:35:14;6.65;;;2.67;;
31262;SDS011;17892;52.080;9.006;2023-12-20T05:37:40;7.95;;;2.03;;
31262;SDS011;17892;52.080;9.006;2023-12-20T05:40:06;7.82;;;2.60;;
31262;SDS011;17892;52.080;9.006;2023-12-20T05:42:36;13.70;;;3.05;;
31262;SDS011;17892;52.080;9.006;2023-12-20T05:45:02;8.93;;;2.08;;
31262;SDS011;17892;52.080;9.006;2023-12-20T05:47:29;8.35;;;2.63;;
31262;SDS011;17892;52.080;9.006;2023-12-20T05:49:55;10.45;;;2.47;;
31262;SDS011;17892;52.080;9.006;2023-12-20T05:52:21;8.57;;;2.75;;
31262;SDS011;17892;52.080;9.006;2023-12-20T05:54:46;5.50;;;2.22;;
31262;SDS011;17892;52.080;9.006;2023-12-20T05:57:12;6.65;;;2.08;;
31262;SDS011;17892;52.080;9.006;2023-12-20T05:59:38;6.68;;;2.17;;
31262;SDS011;17892;52.080;9.006;2023-12-20T06:02:04;6.88;;;2.47;;
31262;SDS011;17892;52.080;9.006;2023-12-20T06:04:30;8.15;;;2.40;;
31262;SDS011;17892;52.080;9.006;2023-12-20T06:06:56;7.47;;;2.30;;
31262;SDS011;17892;52.080;9.006;2023-12-20T06:09:22;8.85;;;2.85;;
31262;SDS011;17892;52.080;9.006;2023-12-20T06:11:47;8.38;;;2.45;;
31262;SDS011;17892;52.080;9.006;2023-12-20T06:14:14;8.65;;;2.42;;
31262;SDS011;17892;52.080;9.006;2023-12-20T06:16:39;7.97;;;2.20;;
31262;SDS011;17892;52.080;9.006;2023-12-20T06:19:05;4.85;;;2.15;;
31262;SDS011;17892;52.080;9.006;2023-12-20T06:21:31;8.40;;;2.33;;
31262;SDS011;17892;52.080;9.006;2023-12-20T06:23:58;8.43;;;2.60;;
31262;SDS011;17892;52.080;9.006;2023-12-20T06:26:24;12.27;;;2.70;;
31262;SDS011;17892;52.080;9.006;2023-12-20T06:28:50;9.70;;;2.40;;
31262;SDS011;17892;52.080;9.006;2023-12-20T06:31:16;9.43;;;2.92;;
31262;SDS011;17892;52.080;9.006;2023-12-20T06:33:42;7.18;;;2.33;;
31262;SDS011;17892;52.080;9.006;2023-12-20T06:36:10;9.40;;;2.40;;
31262;SDS011;17892;52.080;9.006;2023-12-20T06:38:38;7.43;;;2.05;;
31262;SDS011;17892;52.080;9.006;2023-12-20T06:41:04;8.40;;;2.63;;
31262;SDS011;17892;52.080;9.006;2023-12-20T06:43:31;7.80;;;2.78;;
31262;SDS011;17892;52.080;9.006;2023-12-20T06:45:57;9.00;;;2.30;;
31262;SDS011;17892;52.080;9.006;2023-12-20T06:48:23;8.20;;;2.72;;
31262;SDS011;17892;52.080;9.006;2023-12-20T06:50:49;9.50;;;3.03;;
31262;SDS011;17892;52.080;9.006;2023-12-20T06:53:15;8.75;;;2.53;;
31262;SDS011;17892;52.080;9.006;2023-12-20T06:55:41;6.95;;;2.30;;
31262;SDS011;17892;52.080;9.006;2023-12-20T06:58:06;8.82;;;3.05;;
31262;SDS011;17892;52.080;9.006;2023-12-20T07:00:32;11.85;;;3.47;;
31262;SDS011;17892;52.080;9.006;2023-12-20T07:02:58;8.98;;;2.53;;
31262;SDS011;17892;52.080;9.006;2023-12-20T07:05:24;8.38;;;2.95;;
31262;SDS011;17892;52.080;9.006;2023-12-20T07:07:50;7.38;;;2.80;;
31262;SDS011;17892;52.080;9.006;2023-12-20T07:10:15;6.90;;;2.70;;
31262;SDS011;17892;52.080;9.006;2023-12-20T07:12:41;7.65;;;2.92;;
31262;SDS011;17892;52.080;9.006;2023-12-20T07:15:07;8.10;;;3.08;;
31262;SDS011;17892;52.080;9.006;2023-12-20T07:17:33;7.75;;;2.40;;
31262;SDS011;17892;52.080;9.006;2023-12-20T07:19:59;7.45;;;2.90;;
31262;SDS011;17892;52.080;9.006;2023-12-20T07:22:29;9.35;;;3.00;;
31262;SDS011;17892;52.080;9.006;2023-12-20T07:24:56;9.63;;;2.53;;
31262;SDS011;17892;52.080;9.006;2023-12-20T07:27:23;9.38;;;2.60;;
31262;SDS011;17892;52.080;9.006;2023-12-20T07:29:49;9.73;;;3.03;;
31262;SDS011;17892;52.080;9.006;2023-12-20T07:32:15;8.23;;;2.97;;
31262;SDS011;17892;52.080;9.006;2023-12-20T07:34:40;7.57;;;2.33;;
31262;SDS011;17892;52.080;9.006;2023-12-20T07:37:06;6.10;;;2.88;;
31262;SDS011;17892;52.080;9.006;2023-12-20T07:39:35;12.05;;;3.40;;
31262;SDS011;17892;52.080;9.006;2023-12-20T07:42:01;7.28;;;2.85;;
31262;SDS011;17892;52.080;9.006;2023-12-20T07:44:26;13.00;;;4.63;;
31262;SDS011;17892;52.080;9.006;2023-12-20T07:46:52;8.35;;;2.67;;
31262;SDS011;17892;52.080;9.006;2023-12-20T07:49:18;9.20;;;2.72;;
31262;SDS011;17892;52.080;9.006;2023-12-20T07:51:44;6.28;;;2.35;;
31262;SDS011;17892;52.080;9.006;2023-12-20T07:54:10;8.30;;;3.05;;
31262;SDS011;17892;52.080;9.006;2023-12-20T07:56:35;6.78;;;2.45;;
31262;SDS011;17892;52.080;9.006;2023-12-20T07:59:01;8.38;;;2.40;;
31262;SDS011;17892;52.080;9.006;2023-12-20T08:01:27;9.63;;;2.95;;
31262;SDS011;17892;52.080;9.006;2023-12-20T08:03:52;7.60;;;2.55;;
31262;SDS011;17892;52.080;9.006;2023-12-20T08:06:18;8.77;;;3.03;;
31262;SDS011;17892;52.080;9.006;2023-12-20T08:08:44;10.35;;;2.95;;
31262;SDS011;17892;52.080;9.006;2023-12-20T08:11:10;5.60;;;1.98;;
31262;SDS011;17892;52.080;9.006;2023-12-20T08:13:36;7.90;;;2.70;;
31262;SDS011;17892;52.080;9.006;2023-12-20T08:16:01;10.13;;;3.15;;
31262;SDS011;17892;52.080;9.006;2023-12-20T08:18:28;7.00;;;2.50;;
31262;SDS011;17892;52.080;9.006;2023-12-20T08:20:54;8.32;;;2.42;;
31262;SDS011;17892;52.080;9.006;2023-12-20T08:23:20;11.02;;;3.25;;
31262;SDS011;17892;52.080;9.006;2023-12-20T08:25:46;7.13;;;2.25;;
31262;SDS011;17892;52.080;9.006;2023-12-20T08:28:13;11.90;;;2.83;;
31262;SDS011;17892;52.080;9.006;2023-12-20T08:30:38;8.43;;;2.35;;
31262;SDS011;17892;52.080;9.006;2023-12-20T08:33:04;7.28;;;2.50;;
31262;SDS011;17892;52.080;9.006;2023-12-20T08:35:32;8.75;;;2.20;;
31262;SDS011;17892;52.080;9.006;2023-12-20T08:37:58;8.77;;;2.75;;
31262;SDS011;17892;52.080;9.006;2023-12-20T08:40:24;7.13;;;1.90;;
31262;SDS011;17892;52.080;9.006;2023-12-20T08:42:49;6.35;;;2.17;;
31262;SDS011;17892;52.080;9.006;2023-12-20T08:45:15;12.25;;;3.63;;
31262;SDS011;17892;52.080;9.006;2023-12-20T08:47:41;7.45;;;2.00;;
31262;SDS011;17892;52.080;9.006;2023-12-20T08:50:07;10.15;;;2.33;;
31262;SDS011;17892;52.080;9.006;2023-12-20T08:52:33;8.10;;;1.95;;
31262;SDS011;17892;52.080;9.006;2023-12-20T08:54:58;6.55;;;2.08;;
31262;SDS011;17892;52.080;9.006;2023-12-20T08:57:24;6.90;;;2.60;;
31262;SDS011;17892;52.080;9.006;2023-12-20T08:59:50;5.88;;;1.65;;
31262;SDS011;17892;52.080;9.006;2023-12-20T09:02:16;5.30;;;1.83;;
31262;SDS011;17892;52.080;9.006;2023-12-20T09:04:42;6.95;;;2.03;;
31262;SDS011;17892;52.080;9.006;2023-12-20T09:07:26;6.22;;;2.15;;
31262;SDS011;17892;52.080;9.006;2023-12-20T09:09:55;9.07;;;2.20;;
31262;SDS011;17892;52.080;9.006;2023-12-20T09:12:21;5.78;;;1.83;;
31262;SDS011;17892;52.080;9.006;2023-12-20T09:14:47;10.70;;;2.42;;
31262;SDS011;17892;52.080;9.006;2023-12-20T09:17:15;8.52;;;2.33;;
31262;SDS011;17892;52.080;9.006;2023-12-20T09:19:42;6.32;;;2.28;;
31262;SDS011;17892;52.080;9.006;2023-12-20T09:22:11;8.18;;;2.72;;
31262;SDS011;17892;52.080;9.006;2023-12-20T09:24:38;7.35;;;2.70;;
31262;SDS011;17892;52.080;9.006;2023-12-20T09:27:04;8.23;;;2.25;;
31262;SDS011;17892;52.080;9.006;2023-12-20T09:29:30;6.07;;;2.47;;
31262;SDS011;17892;52.080;9.006;2023-12-20T09:31:56;6.70;;;2.20;;
31262;SDS011;17892;52.080;9.006;2023-12-20T09:34:23;7.75;;;2.50;;
31262;SDS011;17892;52.080;9.006;2023-12-20T09:36:50;5.05;;;2.55;;
31262;SDS011;17892;52.080;9.006;2023-12-20T09:39:18;7.80;;;2.72;;
31262;SDS011;17892;52.080;9.006;2023-12-20T09:41:45;5.65;;;2.05;;
31262;SDS011;17892;52.080;9.006;2023-12-20T09:44:30;8.93;;;3.13;;
31262;SDS011;17892;52.080;9.006;2023-12-20T09:46:58;9.50;;;3.13;;
31262;SDS011;17892;52.080;9.006;2023-12-20T09:49:24;5.80;;;2.60;;
31262;SDS011;17892;52.080;9.006;2023-12-20T09:51:53;6.35;;;2.40;;
31262;SDS011;17892;52.080;9.006;2023-12-20T09:54:20;13.38;;;3.47;;
31262;SDS011;17892;52.080;9.006;2023-12-20T09:56:46;10.95;;;4.00;;
31262;SDS011;17892;52.080;9.006;2023-12-20T09:59:13;6.28;;;2.97;;
31262;SDS011;17892;52.080;9.006;2023-12-20T10:01:39;10.40;;;4.10;;
31262;SDS011;17892;52.080;9.006;2023-12-20T10:04:07;8.77;;;3.67;;
31262;SDS011;17892;52.080;9.006;2023-12-20T10:06:46;12.85;;;4.22;;
31262;SDS011;17892;52.080;9.006;2023-12-20T10:09:12;11.73;;;3.60;;
31262;SDS011;17892;52.080;9.006;2023-12-20T10:11:38;12.88;;;3.28;;
31262;SDS011;17892;52.080;9.006;2023-12-20T10:14:05;9.73;;;4.25;;
31262;SDS011;17892;52.080;9.006;2023-12-20T10:16:32;8.15;;;3.33;;
31262;SDS011;17892;52.080;9.006;2023-12-20T10:18:59;9.60;;;3.83;;
31262;SDS011;17892;52.080;9.006;2023-12-20T10:21:29;11.07;;;3.50;;
31262;SDS011;17892;52.080;9.006;2023-12-20T10:23:57;11.35;;;5.35;;
31262;SDS011;17892;52.080;9.006;2023-12-20T10:26:26;8.60;;;3.88;;
31262;SDS011;17892;52.080;9.006;2023-12-20T10:28:55;9.82;;;3.53;;
31262;SDS011;17892;52.080;9.006;2023-12-20T10:31:32;11.60;;;3.90;;
31262;SDS011;17892;52.080;9.006;2023-12-20T10:33:59;6.80;;;3.33;;
31262;SDS011;17892;52.080;9.006;2023-12-20T10:36:27;10.77;;;3.50;;
31262;SDS011;17892;52.080;9.006;2023-12-20T10:38:57;7.97;;;3.10;;
31262;SDS011;17892;52.080;9.006;2023-12-20T10:41:25;9.95;;;3.55;;
31262;SDS011;17892;52.080;9.006;2023-12-20T10:43:57;7.38;;;3.25;;
31262;SDS011;17892;52.080;9.006;2023-12-20T10:46:29;7.85;;;3.00;;
31262;SDS011;17892;52.080;9.006;2023-12-20T10:48:56;9.30;;;2.70;;
31262;SDS011;17892;52.080;9.006;2023-12-20T10:51:22;9.57;;;3.00;;
31262;SDS011;17892;52.080;9.006;2023-12-20T10:53:52;6.85;;;2.78;;
31262;SDS011;17892;52.080;9.006;2023-12-20T10:56:21;8.20;;;3.20;;
31262;SDS011;17892;52.080;9.006;2023-12-20T10:58:48;10.70;;;3.10;;
31262;SDS011;17892;52.080;9.006;2023-12-20T11:01:16;8.07;;;2.63;;
31262;SDS011;17892;52.080;9.006;2023-12-20T11:03:50;9.98;;;2.85;;
31262;SDS011;17892;52.080;9.006;2023-12-20T11:08:49;5.93;;;2.40;;
31262;SDS011;17892;52.080;9.006;2023-12-20T11:11:32;9.77;;;2.40;;
31262;SDS011;17892;52.080;9.006;2023-12-20T11:14:08;9.18;;;2.92;;
31262;SDS011;17892;52.080;9.006;2023-12-20T11:19:36;11.32;;;2.40;;
31262;SDS011;17892;52.080;9.006;2023-12-20T11:22:08;9.02;;;2.42;;
31262;SDS011;17892;52.080;9.006;2023-12-20T11:24:34;7.07;;;2.30;;
31262;SDS011;17892;52.080;9.006;2023-12-20T11:27:02;6.68;;;2.22;;
31262;SDS011;17892;52.080;9.006;2023-12-20T11:29:29;5.32;;;1.60;;
31262;SDS011;17892;52.080;9.006;2023-12-20T11:32:03;5.40;;;1.90;;
31262;SDS011;17892;52.080;9.006;2023-12-20T11:34:50;5.45;;;1.70;;
31262;SDS011;17892;52.080;9.006;2023-12-20T11:37:16;6.18;;;1.58;;
31262;SDS011;17892;52.080;9.006;2023-12-20T11:39:45;5.95;;;1.83;;
31262;SDS011;17892;52.080;9.006;2023-12-20T11:42:10;4.68;;;1.83;;
31262;SDS011;17892;52.080;9.006;2023-12-20T11:44:36;6.97;;;1.77;;
31262;SDS011;17892;52.080;9.006;2023-12-20T11:47:03;6.10;;;1.90;;
31262;SDS011;17892;52.080;9.006;2023-12-20T11:49:29;4.18;;;1.58;;
31262;SDS011;17892;52.080;9.006;2023-12-20T11:51:55;4.82;;;1.60;;
31262;SDS011;17892;52.080;9.006;2023-12-20T11:54:22;6.20;;;1.70;;
31262;SDS011;17892;52.080;9.006;2023-12-20T11:56:47;6.55;;;1.83;;
31262;SDS011;17892;52.080;9.006;2023-12-20T11:59:14;4.35;;;1.50;;
31262;SDS011;17892;52.080;9.006;2023-12-20T12:01:40;5.88;;;2.13;;
31262;SDS011;17892;52.080;9.006;2023-12-20T12:04:13;5.63;;;2.10;;
31262;SDS011;17892;52.080;9.006;2023-12-20T12:06:40;7.07;;;1.50;;
31262;SDS011;17892;52.080;9.006;2023-12-20T12:09:06;4.78;;;1.70;;
31262;SDS011;17892;52.080;9.006;2023-12-20T12:11:32;7.43;;;2.40;;
31262;SDS011;17892;52.080;9.006;2023-12-20T12:13:58;6.57;;;2.33;;
31262;SDS011;17892;52.080;9.006;2023-12-20T12:16:24;4.85;;;1.33;;
31262;SDS011;17892;52.080;9.006;2023-12-20T12:18:57;6.80;;;2.17;;
31262;SDS011;17892;52.080;9.006;2023-12-20T12:21:23;5.90;;;1.25;;
31262;SDS011;17892;52.080;9.006;2023-12-20T12:23:50;5.13;;;1.52;;
31262;SDS011;17892;52.080;9.006;2023-12-20T12:26:15;5.63;;;1.40;;
31262;SDS011;17892;52.080;9.006;2023-12-20T12:28:41;5.07;;;1.80;;
31262;SDS011;17892;52.080;9.006;2023-12-20T12:31:08;4.65;;;1.65;;
31262;SDS011;17892;52.080;9.006;2023-12-20T12:33:40;7.93;;;1.85;;
31262;SDS011;17892;52.080;9.006;2023-12-20T12:36:06;6.45;;;2.15;;
31262;SDS011;17892;52.080;9.006;2023-12-20T12:38:32;4.70;;;1.88;;
31262;SDS011;17892;52.080;9.006;2023-12-20T12:40:59;4.75;;;1.75;;
31262;SDS011;17892;52.080;9.006;2023-12-20T12:43:25;5.75;;;1.85;;
31262;SDS011;17892;52.080;9.006;2023-12-20T12:45:51;4.25;;;1.40;;
31262;SDS011;17892;52.080;9.006;2023-12-20T12:48:18;5.40;;;1.70;;
31262;SDS011;17892;52.080;9.006;2023-12-20T12:50:45;6.35;;;2.10;;
31262;SDS011;17892;52.080;9.006;2023-12-20T12:53:11;5.07;;;1.70;;
31262;SDS011;17892;52.080;9.006;2023-12-20T12:55:36;6.55;;;1.40;;
31262;SDS011;17892;52.080;9.006;2023-12-20T12:58:02;5.15;;;1.48;;
31262;SDS011;17892;52.080;9.006;2023-12-20T13:00:28;6.30;;;1.65;;
31262;SDS011;17892;52.080;9.006;2023-12-20T13:02:54;5.50;;;1.50;;
31262;SDS011;17892;52.080;9.006;2023-12-20T13:05:20;5.07;;;1.52;;
31262;SDS011;17892;52.080;9.006;2023-12-20T13:07:45;3.30;;;1.10;;
31262;SDS011;17892;52.080;9.006;2023-12-20T13:10:11;1.95;;;0.57;;
31262;SDS011;17892;52.080;9.006;2023-12-20T13:12:37;2.60;;;0.63;;
31262;SDS011;17892;52.080;9.006;2023-12-20T13:15:03;3.28;;;0.52;;
31262;SDS011;17892;52.080;9.006;2023-12-20T13:17:29;4.72;;;0.50;;
31262;SDS011;17892;52.080;9.006;2023-12-20T13:19:55;4.00;;;0.88;;
31262;SDS011;17892;52.080;9.006;2023-12-20T13:22:20;3.90;;;0.43;;
31262;SDS011;17892;52.080;9.006;2023-12-20T13:24:46;1.23;;;0.45;;
31262;SDS011;17892;52.080;9.006;2023-12-20T13:27:12;3.47;;;0.55;;
31262;SDS011;17892;52.080;9.006;2023-12-20T13:29:37;4.00;;;0.60;;
31262;SDS011;17892;52.080;9.006;2023-12-20T13:32:03;2.38;;;0.50;;
31262;SDS011;17892;52.080;9.006;2023-12-20T13:34:29;3.08;;;0.40;;
31262;SDS011;17892;52.080;9.006;2023-12-20T13:36:55;4.45;;;0.70;;
31262;SDS011;17892;52.080;9.006;2023-12-20T13:39:21;2.45;;;0.40;;
31262;SDS011;17892;52.080;9.006;2023-12-20T13:41:47;0.80;;;0.40;;
31262;SDS011;17892;52.080;9.006;2023-12-20T13:44:13;2.38;;;0.50;;
31262;SDS011;17892;52.080;9.006;2023-12-20T13:46:40;3.80;;;0.82;;
31262;SDS011;17892;52.080;9.006;2023-12-20T13:49:06;3.55;;;0.38;;
31262;SDS011;17892;52.080;9.006;2023-12-20T13:51:32;3.67;;;0.70;;
31262;SDS011;17892;52.080;9.006;2023-12-20T13:53:57;4.60;;;0.80;;
31262;SDS011;17892;52.080;9.006;2023-12-20T13:56:25;2.17;;;0.50;;
31262;SDS011;17892;52.080;9.006;2023-12-20T13:58:51;2.55;;;0.45;;
31262;SDS011;17892;52.080;9.006;2023-12-20T14:01:16;3.33;;;0.50;;
31262;SDS011;17892;52.080;9.006;2023-12-20T14:03:42;2.75;;;0.50;;
31262;SDS011;17892;52.080;9.006;2023-12-20T14:06:08;2.25;;;0.50;;
31262;SDS011;17892;52.080;9.006;2023-12-20T14:08:34;3.67;;;0.60;;
31262;SDS011;17892;52.080;9.006;2023-12-20T14:11:00;1.92;;;0.40;;
31262;SDS011;17892;52.080;9.006;2023-12-20T14:13:26;4.22;;;1.05;;
31262;SDS011;17892;52.080;9.006;2023-12-20T14:15:52;3.40;;;0.70;;
31262;SDS011;17892;52.080;9.006;2023-12-20T14:18:19;2.88;;;0.60;;
31262;SDS011;17892;52.080;9.006;2023-12-20T14:20:45;3.17;;;0.70;;
31262;SDS011;17892;52.080;9.006;2023-12-20T14:23:12;2.60;;;0.60;;
31262;SDS011;17892;52.080;9.006;2023-12-20T14:25:39;3.97;;;0.60;;
31262;SDS011;17892;52.080;9.006;2023-12-20T14:28:06;4.68;;;1.73;;
31262;SDS011;17892;52.080;9.006;2023-12-20T14:30:32;4.57;;;0.63;;
31262;SDS011;17892;52.080;9.006;2023-12-20T14:32:58;3.28;;;0.70;;
31262;SDS011;17892;52.080;9.006;2023-12-20T14:35:24;2.42;;;0.50;;
31262;SDS011;17892;52.080;9.006;2023-12-20T14:37:50;2.38;;;0.47;;
31262;SDS011;17892;52.080;9.006;2023-12-20T14:40:15;3.47;;;1.08;;
31262;SDS011;17892;52.080;9.006;2023-12-20T14:42:44;3.80;;;0.73;;
31262;SDS011;17892;52.080;9.006;2023-12-20T14:45:11;4.05;;;0.80;;
31262;SDS011;17892;52.080;9.006;2023-12-20T14:47:38;2.22;;;0.60;;